Tranbjerg, Denmark
Current Conditions -  °F | °C
As of 3:20 PM on Monday 22 Dec 2014 (Local Time) from EKAH Reporting Station
Broken Clouds Broken Clouds  
Wind Chill: 40°   Ceiling: 1700
Heat Index: 46°   Visibility: 6mi
Dew Point: 39°   Wind: 15mph
Humidity: 76%   Direction: 260°W
Pressure: 29.47"   Gusts: NA
Location:  56.09°N, 10.12°E
Report Text: EKAH 221420Z AUTO 26013KT 9999NDV BKN017/// BKN057///08/04 Q0998
Loading
Personal Weather Stations






























Interactive Weather Map New forecast layout! Learn more

10-Day Weather Forecast

Advertisements
Track Severe Weather on mobile